Nakkehoved, Denmark

4:35 PM CEST on October 25, 2014 (GMT +0200)
IHOVEDST4 | Change Station
CLOSE
Current Station
Personal Weather Station
Location: Gilleleje, HOVEDSTADEN
Elevation: 20 ft
Nearby Weather Stations

Elev 20 ft 56.12 °N, 12.31 °E | Updated 9 minutes ago

Overcast
Overcast
51.2 °F
Feels Like 51.2 °F
N
0.0
Wind Variable Wind from South
Gusts 0.0 mph

Today
High -- | Low -- °F
--% Chance of Precip.
Yesterday
High -- | Low -- °F
Precip. -- in
8:02 AM 5:45 PM
Waxing Crescent, 3% visible
Pressure 30.01 in
Visibility 1.6 miles
Clouds Overcast 400 ft
Dew Point 50 °F
Humidity 97%
Rainfall 0.11 in
Snow Depth Not available.
UV 0 out of 12
Pollen Not available.
Air Quality Not available.
Flu Activity Not available.
METAR ESTA 251420Z AUTO 16008KT 2600 BR OVC004/// 11/10 Q1016

More Conditions Fewer Conditions

Pressure 30.01 in
Visibility 1.6 miles
Clouds Overcast 400 ft
Dew Point 50 °F
Humidity 97%
Rainfall 0.11 in
Snow Depth Not available.
UV 0 out of 12
Pollen Not available.
Air Quality Not available.
Flu Activity Not available.
METAR ESTA 251420Z AUTO 16008KT 2600 BR OVC004/// 11/10 Q1016

More Conditions Fewer Conditions

10-Day Weather Forecast

Almanac

Astronomy

Oct. 25, 2014 Rise Set
Actual Time 8:02 AM CEST 5:45 PM CEST
Civil Twilight 7:23 AM CEST 6:24 PM CEST
Nautical Twilight 6:40 AM CEST 7:08 PM CEST
Astronomical Twilight 5:57 AM CEST 7:51 PM CEST
Moon 9:37 AM CEST 6:41 PM CEST
Length of Visible Light 11h 00m
Length of Day
9h 43m
Tomorrow will be 4m 28s shorter.
Waxing Crescent, 3% of the Moon is Illuminated
Today
Waxing Crescent
Oct 30
First Quarter
Nov 6
Full
Nov 14
Last Quarter
Nov 22
New

Today's Extremes

Country Highs Country Lows

Community

WunderPhotos

Upload Photos

1,764,852 photos uploaded!

Nearby

Snow Depth

Not available.

Earthquake Activity

City Distance Mag. Time & Date
No recent earthquake activity has been reported nearby.
Minimum magnitude displayed is 2.5.

Coastal Water Temperatures

Place Temperature
No Stations Reporting

Nearby Weather Stations